sensor_id;sensor_type;location;lat;lon;timestamp;temperature;humidity
74087;SHT30;62445;48.406;-4.518;2023-07-29T00:01:48;24.65;64.07
74087;SHT30;62445;48.406;-4.518;2023-07-29T00:04:14;24.62;64.05
74087;SHT30;62445;48.406;-4.518;2023-07-29T00:06:40;24.63;64.06
74087;SHT30;62445;48.406;-4.518;2023-07-29T00:09:05;24.66;64.04
74087;SHT30;62445;48.406;-4.518;2023-07-29T00:11:31;24.60;64.10
74087;SHT30;62445;48.406;-4.518;2023-07-29T00:14:01;24.63;63.99
74087;SHT30;62445;48.406;-4.518;2023-07-29T00:16:27;24.63;64.04
74087;SHT30;62445;48.406;-4.518;2023-07-29T00:18:52;24.63;64.01
74087;SHT30;62445;48.406;-4.518;2023-07-29T00:21:17;24.60;64.03
74087;SHT30;62445;48.406;-4.518;2023-07-29T00:23:43;24.63;64.01
74087;SHT30;62445;48.406;-4.518;2023-07-29T00:26:08;24.62;64.00
74087;SHT30;62445;48.406;-4.518;2023-07-29T00:28:34;24.65;63.97
74087;SHT30;62445;48.406;-4.518;2023-07-29T00:30:59;24.60;63.99
74087;SHT30;62445;48.406;-4.518;2023-07-29T00:33:24;24.63;63.97
74087;SHT30;62445;48.406;-4.518;2023-07-29T00:35:50;24.63;63.99
74087;SHT30;62445;48.406;-4.518;2023-07-29T00:38:16;24.63;63.98
74087;SHT30;62445;48.406;-4.518;2023-07-29T00:40:41;24.62;63.96
74087;SHT30;62445;48.406;-4.518;2023-07-29T00:43:07;24.60;63.93
74087;SHT30;62445;48.406;-4.518;2023-07-29T00:45:33;24.62;64.01
74087;SHT30;62445;48.406;-4.518;2023-07-29T00:48:00;24.60;63.90
74087;SHT30;62445;48.406;-4.518;2023-07-29T00:50:26;24.62;63.92
74087;SHT30;62445;48.406;-4.518;2023-07-29T00:52:54;24.62;63.93
74087;SHT30;62445;48.406;-4.518;2023-07-29T00:55:19;24.60;63.96
74087;SHT30;62445;48.406;-4.518;2023-07-29T00:57:45;24.60;63.90
74087;SHT30;62445;48.406;-4.518;2023-07-29T01:00:14;24.62;63.89
74087;SHT30;62445;48.406;-4.518;2023-07-29T01:02:41;24.63;63.92
74087;SHT30;62445;48.406;-4.518;2023-07-29T01:05:07;24.62;63.95
74087;SHT30;62445;48.406;-4.518;2023-07-29T01:07:59;24.60;63.78
74087;SHT30;62445;48.406;-4.518;2023-07-29T01:10:46;24.60;63.92
74087;SHT30;62445;48.406;-4.518;2023-07-29T01:16:39;24.57;63.89
74087;SHT30;62445;48.406;-4.518;2023-07-29T01:19:14;24.56;63.91
74087;SHT30;62445;48.406;-4.518;2023-07-29T01:21:45;24.55;63.90
74087;SHT30;62445;48.406;-4.518;2023-07-29T01:24:10;24.53;63.84
74087;SHT30;62445;48.406;-4.518;2023-07-29T01:26:36;24.53;63.86
74087;SHT30;62445;48.406;-4.518;2023-07-29T01:29:01;24.55;63.89
74087;SHT30;62445;48.406;-4.518;2023-07-29T01:31:38;24.55;63.81
74087;SHT30;62445;48.406;-4.518;2023-07-29T01:34:22;24.52;63.78
74087;SHT30;62445;48.406;-4.518;2023-07-29T01:36:52;24.52;63.80
74087;SHT30;62445;48.406;-4.518;2023-07-29T01:39:20;24.49;63.76
74087;SHT30;62445;48.406;-4.518;2023-07-29T01:41:48;24.49;63.77
74087;SHT30;62445;48.406;-4.518;2023-07-29T01:44:14;24.51;63.76
74087;SHT30;62445;48.406;-4.518;2023-07-29T01:46:39;24.49;63.75
74087;SHT30;62445;48.406;-4.518;2023-07-29T01:49:05;24.49;63.76
74087;SHT30;62445;48.406;-4.518;2023-07-29T01:51:30;24.46;63.76
74087;SHT30;62445;48.406;-4.518;2023-07-29T01:53:55;24.48;63.73
74087;SHT30;62445;48.406;-4.518;2023-07-29T01:56:21;24.43;63.69
74087;SHT30;62445;48.406;-4.518;2023-07-29T01:58:47;24.45;63.68
74087;SHT30;62445;48.406;-4.518;2023-07-29T02:01:12;24.46;63.73
74087;SHT30;62445;48.406;-4.518;2023-07-29T02:03:38;24.46;63.69
74087;SHT30;62445;48.406;-4.518;2023-07-29T02:06:03;24.46;63.67
74087;SHT30;62445;48.406;-4.518;2023-07-29T02:08:28;24.43;63.64
74087;SHT30;62445;48.406;-4.518;2023-07-29T02:10:54;24.42;63.65
74087;SHT30;62445;48.406;-4.518;2023-07-29T02:13:19;24.43;63.64
74087;SHT30;62445;48.406;-4.518;2023-07-29T02:15:45;24.42;63.61
74087;SHT30;62445;48.406;-4.518;2023-07-29T02:18:10;24.43;63.61
74087;SHT30;62445;48.406;-4.518;2023-07-29T02:20:35;24.40;63.57
74087;SHT30;62445;48.406;-4.518;2023-07-29T02:23:01;24.39;63.60
74087;SHT30;62445;48.406;-4.518;2023-07-29T02:25:26;24.40;63.53
74087;SHT30;62445;48.406;-4.518;2023-07-29T02:27:52;24.40;63.55
74087;SHT30;62445;48.406;-4.518;2023-07-29T02:30:17;24.39;63.50
74087;SHT30;62445;48.406;-4.518;2023-07-29T02:32:42;24.38;63.56
74087;SHT30;62445;48.406;-4.518;2023-07-29T02:35:08;24.38;63.52
74087;SHT30;62445;48.406;-4.518;2023-07-29T02:37:33;24.39;63.49
74087;SHT30;62445;48.406;-4.518;2023-07-29T02:39:59;24.38;63.51
74087;SHT30;62445;48.406;-4.518;2023-07-29T02:42:25;24.38;63.45
74087;SHT30;62445;48.406;-4.518;2023-07-29T02:44:50;24.36;63.45
74087;SHT30;62445;48.406;-4.518;2023-07-29T02:47:16;24.35;63.40
74087;SHT30;62445;48.406;-4.518;2023-07-29T02:49:41;24.35;63.40
74087;SHT30;62445;48.406;-4.518;2023-07-29T02:52:07;24.36;63.43
74087;SHT30;62445;48.406;-4.518;2023-07-29T02:54:32;24.36;63.38
74087;SHT30;62445;48.406;-4.518;2023-07-29T02:56:57;24.35;63.34
74087;SHT30;62445;48.406;-4.518;2023-07-29T02:59:23;24.36;63.36
74087;SHT30;62445;48.406;-4.518;2023-07-29T03:01:48;24.32;63.35
74087;SHT30;62445;48.406;-4.518;2023-07-29T03:04:14;24.33;63.33
74087;SHT30;62445;48.406;-4.518;2023-07-29T03:06:39;24.33;63.35
74087;SHT30;62445;48.406;-4.518;2023-07-29T03:09:04;24.36;63.34
74087;SHT30;62445;48.406;-4.518;2023-07-29T03:11:30;24.35;63.35
74087;SHT30;62445;48.406;-4.518;2023-07-29T03:13:56;24.33;63.26
74087;SHT30;62445;48.406;-4.518;2023-07-29T03:16:22;24.32;63.33
74087;SHT30;62445;48.406;-4.518;2023-07-29T03:18:48;24.33;63.28
74087;SHT30;62445;48.406;-4.518;2023-07-29T03:21:13;24.33;63.25
74087;SHT30;62445;48.406;-4.518;2023-07-29T03:23:39;24.29;63.28
74087;SHT30;62445;48.406;-4.518;2023-07-29T03:26:04;24.29;63.27
74087;SHT30;62445;48.406;-4.518;2023-07-29T03:28:39;24.30;63.24
74087;SHT30;62445;48.406;-4.518;2023-07-29T03:31:05;24.28;63.23
74087;SHT30;62445;48.406;-4.518;2023-07-29T03:33:31;24.32;63.25
74087;SHT30;62445;48.406;-4.518;2023-07-29T03:35:56;24.30;63.23
74087;SHT30;62445;48.406;-4.518;2023-07-29T03:38:22;24.29;63.20
74087;SHT30;62445;48.406;-4.518;2023-07-29T03:40:48;24.25;63.20
74087;SHT30;62445;48.406;-4.518;2023-07-29T03:43:13;24.26;63.17
74087;SHT30;62445;48.406;-4.518;2023-07-29T03:45:39;24.29;63.20
74087;SHT30;62445;48.406;-4.518;2023-07-29T03:48:05;24.29;63.19
74087;SHT30;62445;48.406;-4.518;2023-07-29T03:50:32;24.26;63.16
74087;SHT30;62445;48.406;-4.518;2023-07-29T03:52:58;24.28;63.13
74087;SHT30;62445;48.406;-4.518;2023-07-29T03:55:23;24.28;63.14
74087;SHT30;62445;48.406;-4.518;2023-07-29T03:57:48;24.26;63.16
74087;SHT30;62445;48.406;-4.518;2023-07-29T04:00:14;24.28;63.13
74087;SHT30;62445;48.406;-4.518;2023-07-29T04:02:40;24.26;63.15
74087;SHT30;62445;48.406;-4.518;2023-07-29T04:05:06;24.26;63.12
74087;SHT30;62445;48.406;-4.518;2023-07-29T04:07:34;24.26;63.08
74087;SHT30;62445;48.406;-4.518;2023-07-29T04:09:59;24.25;63.11
74087;SHT30;62445;48.406;-4.518;2023-07-29T04:12:26;24.25;63.09
74087;SHT30;62445;48.406;-4.518;2023-07-29T04:14:51;24.24;63.08
74087;SHT30;62445;48.406;-4.518;2023-07-29T04:17:16;24.26;63.02
74087;SHT30;62445;48.406;-4.518;2023-07-29T04:19:42;24.25;63.00
74087;SHT30;62445;48.406;-4.518;2023-07-29T04:22:07;24.24;63.00
74087;SHT30;62445;48.406;-4.518;2023-07-29T04:24:33;24.24;63.03
74087;SHT30;62445;48.406;-4.518;2023-07-29T04:26:58;24.24;63.02
74087;SHT30;62445;48.406;-4.518;2023-07-29T04:29:23;24.22;63.02
74087;SHT30;62445;48.406;-4.518;2023-07-29T04:31:50;24.21;63.00
74087;SHT30;62445;48.406;-4.518;2023-07-29T04:34:15;24.22;63.02
74087;SHT30;62445;48.406;-4.518;2023-07-29T04:36:41;24.22;62.95
74087;SHT30;62445;48.406;-4.518;2023-07-29T04:39:06;24.22;62.96
74087;SHT30;62445;48.406;-4.518;2023-07-29T04:41:31;24.21;62.97
74087;SHT30;62445;48.406;-4.518;2023-07-29T04:43:57;24.21;62.95
74087;SHT30;62445;48.406;-4.518;2023-07-29T04:46:22;24.21;62.88
74087;SHT30;62445;48.406;-4.518;2023-07-29T04:48:48;24.22;62.92
74087;SHT30;62445;48.406;-4.518;2023-07-29T04:51:13;24.21;62.93
74087;SHT30;62445;48.406;-4.518;2023-07-29T04:53:38;24.22;62.89
74087;SHT30;62445;48.406;-4.518;2023-07-29T04:56:04;24.19;62.90
74087;SHT30;62445;48.406;-4.518;2023-07-29T04:58:33;24.17;62.89
74087;SHT30;62445;48.406;-4.518;2023-07-29T05:01:01;24.18;62.90
74087;SHT30;62445;48.406;-4.518;2023-07-29T05:03:27;24.18;62.86
74087;SHT30;62445;48.406;-4.518;2023-07-29T05:05:52;24.18;62.85
74087;SHT30;62445;48.406;-4.518;2023-07-29T05:08:20;24.18;62.84
74087;SHT30;62445;48.406;-4.518;2023-07-29T05:10:48;24.18;62.87
74087;SHT30;62445;48.406;-4.518;2023-07-29T05:13:15;24.19;62.86
74087;SHT30;62445;48.406;-4.518;2023-07-29T05:15:40;24.15;62.84
74087;SHT30;62445;48.406;-4.518;2023-07-29T05:18:05;24.17;62.82
74087;SHT30;62445;48.406;-4.518;2023-07-29T05:20:31;24.18;62.82
74087;SHT30;62445;48.406;-4.518;2023-07-29T05:22:56;24.18;62.83
74087;SHT30;62445;48.406;-4.518;2023-07-29T05:25:21;24.15;62.83
74087;SHT30;62445;48.406;-4.518;2023-07-29T05:27:47;24.19;62.83
74087;SHT30;62445;48.406;-4.518;2023-07-29T05:30:12;24.15;62.80
74087;SHT30;62445;48.406;-4.518;2023-07-29T05:32:38;24.15;62.80
74087;SHT30;62445;48.406;-4.518;2023-07-29T05:35:03;24.18;62.82
74087;SHT30;62445;48.406;-4.518;2023-07-29T05:37:29;24.15;62.78
74087;SHT30;62445;48.406;-4.518;2023-07-29T05:39:54;24.14;62.79
74087;SHT30;62445;48.406;-4.518;2023-07-29T05:42:20;24.15;62.79
74087;SHT30;62445;48.406;-4.518;2023-07-29T05:44:45;24.17;62.75
74087;SHT30;62445;48.406;-4.518;2023-07-29T05:47:10;24.17;62.80
74087;SHT30;62445;48.406;-4.518;2023-07-29T05:49:36;24.14;62.77
74087;SHT30;62445;48.406;-4.518;2023-07-29T05:52:01;24.17;62.78
74087;SHT30;62445;48.406;-4.518;2023-07-29T05:54:27;24.12;62.78
74087;SHT30;62445;48.406;-4.518;2023-07-29T05:56:52;24.12;62.82
74087;SHT30;62445;48.406;-4.518;2023-07-29T05:59:17;24.14;62.79
74087;SHT30;62445;48.406;-4.518;2023-07-29T06:01:43;24.12;62.77
74087;SHT30;62445;48.406;-4.518;2023-07-29T06:04:08;24.14;62.77
74087;SHT30;62445;48.406;-4.518;2023-07-29T06:06:33;24.15;62.77
74087;SHT30;62445;48.406;-4.518;2023-07-29T06:08:59;24.12;62.76
74087;SHT30;62445;48.406;-4.518;2023-07-29T06:11:24;24.15;62.77
74087;SHT30;62445;48.406;-4.518;2023-07-29T06:13:50;24.09;62.79
74087;SHT30;62445;48.406;-4.518;2023-07-29T06:16:15;24.15;62.80
74087;SHT30;62445;48.406;-4.518;2023-07-29T06:18:41;24.14;62.78
74087;SHT30;62445;48.406;-4.518;2023-07-29T06:21:06;24.11;62.79
74087;SHT30;62445;48.406;-4.518;2023-07-29T06:23:33;24.11;62.79
74087;SHT30;62445;48.406;-4.518;2023-07-29T06:25:59;24.12;62.76
74087;SHT30;62445;48.406;-4.518;2023-07-29T06:28:26;24.11;62.75
74087;SHT30;62445;48.406;-4.518;2023-07-29T06:30:51;24.11;62.74
74087;SHT30;62445;48.406;-4.518;2023-07-29T06:33:17;24.12;62.78
74087;SHT30;62445;48.406;-4.518;2023-07-29T06:35:42;24.09;62.75
74087;SHT30;62445;48.406;-4.518;2023-07-29T06:38:08;24.11;62.74
74087;SHT30;62445;48.406;-4.518;2023-07-29T06:40:33;24.11;62.75
74087;SHT30;62445;48.406;-4.518;2023-07-29T06:42:58;24.11;62.79
74087;SHT30;62445;48.406;-4.518;2023-07-29T06:45:24;24.11;62.77
74087;SHT30;62445;48.406;-4.518;2023-07-29T06:47:49;24.08;62.77
74087;SHT30;62445;48.406;-4.518;2023-07-29T06:50:15;24.07;62.82
74087;SHT30;62445;48.406;-4.518;2023-07-29T06:52:40;24.09;62.87
74087;SHT30;62445;48.406;-4.518;2023-07-29T06:55:06;24.09;62.81
74087;SHT30;62445;48.406;-4.518;2023-07-29T06:57:31;24.08;62.83
74087;SHT30;62445;48.406;-4.518;2023-07-29T06:59:57;24.08;62.82
74087;SHT30;62445;48.406;-4.518;2023-07-29T07:02:23;24.11;62.84
74087;SHT30;62445;48.406;-4.518;2023-07-29T07:04:48;24.09;62.82
74087;SHT30;62445;48.406;-4.518;2023-07-29T07:07:15;24.09;62.82
74087;SHT30;62445;48.406;-4.518;2023-07-29T07:09:40;24.09;62.86
74087;SHT30;62445;48.406;-4.518;2023-07-29T07:12:06;24.09;62.83
74087;SHT30;62445;48.406;-4.518;2023-07-29T07:14:31;24.08;62.82
74087;SHT30;62445;48.406;-4.518;2023-07-29T07:16:57;24.08;62.81
74087;SHT30;62445;48.406;-4.518;2023-07-29T07:19:22;24.08;62.83
74087;SHT30;62445;48.406;-4.518;2023-07-29T07:21:48;24.08;62.87
74087;SHT30;62445;48.406;-4.518;2023-07-29T07:24:13;24.09;62.87
74087;SHT30;62445;48.406;-4.518;2023-07-29T07:26:38;24.08;62.83
74087;SHT30;62445;48.406;-4.518;2023-07-29T07:29:04;24.09;62.85
74087;SHT30;62445;48.406;-4.518;2023-07-29T07:31:33;24.09;62.87
74087;SHT30;62445;48.406;-4.518;2023-07-29T07:33:58;24.09;63.06
74087;SHT30;62445;48.406;-4.518;2023-07-29T07:36:23;24.09;63.00
74087;SHT30;62445;48.406;-4.518;2023-07-29T07:38:49;24.11;62.94
74087;SHT30;62445;48.406;-4.518;2023-07-29T07:41:14;24.12;62.88
74087;SHT30;62445;48.406;-4.518;2023-07-29T07:43:40;24.12;62.79
74087;SHT30;62445;48.406;-4.518;2023-07-29T07:46:05;24.14;62.82
74087;SHT30;62445;48.406;-4.518;2023-07-29T07:48:30;24.12;62.79
74087;SHT30;62445;48.406;-4.518;2023-07-29T07:50:58;24.11;62.73
74087;SHT30;62445;48.406;-4.518;2023-07-29T07:53:23;24.12;62.73
74087;SHT30;62445;48.406;-4.518;2023-07-29T07:55:50;24.11;62.76
74087;SHT30;62445;48.406;-4.518;2023-07-29T07:58:16;24.08;62.75
74087;SHT30;62445;48.406;-4.518;2023-07-29T08:00:41;24.07;62.71
74087;SHT30;62445;48.406;-4.518;2023-07-29T08:03:07;24.07;62.33
74087;SHT30;62445;48.406;-4.518;2023-07-29T08:05:32;24.09;62.27
74087;SHT30;62445;48.406;-4.518;2023-07-29T08:07:58;24.08;61.97
74087;SHT30;62445;48.406;-4.518;2023-07-29T08:10:24;24.05;61.68
74087;SHT30;62445;48.406;-4.518;2023-07-29T08:12:49;24.02;61.69
74087;SHT30;62445;48.406;-4.518;2023-07-29T08:15:14;24.08;61.71
74087;SHT30;62445;48.406;-4.518;2023-07-29T08:17:40;24.08;61.55
74087;SHT30;62445;48.406;-4.518;2023-07-29T08:20:06;24.08;61.42
74087;SHT30;62445;48.406;-4.518;2023-07-29T08:22:31;24.09;61.33
74087;SHT30;62445;48.406;-4.518;2023-07-29T08:24:57;24.11;61.71
74087;SHT30;62445;48.406;-4.518;2023-07-29T08:27:22;24.17;61.41
74087;SHT30;62445;48.406;-4.518;2023-07-29T08:29:48;24.18;61.30
74087;SHT30;62445;48.406;-4.518;2023-07-29T08:32:13;24.18;61.26
74087;SHT30;62445;48.406;-4.518;2023-07-29T08:34:38;24.22;61.15
74087;SHT30;62445;48.406;-4.518;2023-07-29T08:37:04;24.26;61.21
74087;SHT30;62445;48.406;-4.518;2023-07-29T08:39:29;24.28;61.14
74087;SHT30;62445;48.406;-4.518;2023-07-29T08:42:14;24.28;61.19
74087;SHT30;62445;48.406;-4.518;2023-07-29T08:44:43;24.30;61.02
74087;SHT30;62445;48.406;-4.518;2023-07-29T08:47:09;24.30;60.93
74087;SHT30;62445;48.406;-4.518;2023-07-29T08:49:36;24.29;60.94
74087;SHT30;62445;48.406;-4.518;2023-07-29T08:52:02;24.28;60.54
74087;SHT30;62445;48.406;-4.518;2023-07-29T08:54:29;24.25;60.18
74087;SHT30;62445;48.406;-4.518;2023-07-29T08:56:54;24.26;60.07
74087;SHT30;62445;48.406;-4.518;2023-07-29T08:59:20;24.26;60.03
74087;SHT30;62445;48.406;-4.518;2023-07-29T09:01:46;24.24;60.01
74087;SHT30;62445;48.406;-4.518;2023-07-29T09:04:12;24.22;60.14
74087;SHT30;62445;48.406;-4.518;2023-07-29T09:06:39;24.24;60.28
74087;SHT30;62445;48.406;-4.518;2023-07-29T09:09:07;24.24;60.36
74087;SHT30;62445;48.406;-4.518;2023-07-29T09:11:33;24.21;60.43
74087;SHT30;62445;48.406;-4.518;2023-07-29T09:13:59;24.18;60.42
74087;SHT30;62445;48.406;-4.518;2023-07-29T09:16:25;24.21;60.46
74087;SHT30;62445;48.406;-4.518;2023-07-29T09:18:51;24.22;60.43
74087;SHT30;62445;48.406;-4.518;2023-07-29T09:21:22;24.24;60.46
74087;SHT30;62445;48.406;-4.518;2023-07-29T09:23:50;24.24;60.48
74087;SHT30;62445;48.406;-4.518;2023-07-29T09:26:22;24.25;60.33
74087;SHT30;62445;48.406;-4.518;2023-07-29T09:28:54;24.24;60.13
74087;SHT30;62445;48.406;-4.518;2023-07-29T09:31:22;24.25;60.09
74087;SHT30;62445;48.406;-4.518;2023-07-29T09:33:47;24.28;60.05
74087;SHT30;62445;48.406;-4.518;2023-07-29T09:36:13;24.29;59.80
74087;SHT30;62445;48.406;-4.518;2023-07-29T09:38:39;24.29;59.72
74087;SHT30;62445;48.406;-4.518;2023-07-29T09:41:05;24.30;59.83
74087;SHT30;62445;48.406;-4.518;2023-07-29T09:43:34;24.32;59.85
74087;SHT30;62445;48.406;-4.518;2023-07-29T09:46:04;24.32;59.77
74087;SHT30;62445;48.406;-4.518;2023-07-29T09:48:34;24.35;59.65
74087;SHT30;62445;48.406;-4.518;2023-07-29T09:51:09;24.33;59.80
74087;SHT30;62445;48.406;-4.518;2023-07-29T09:53:42;24.33;59.68
74087;SHT30;62445;48.406;-4.518;2023-07-29T09:56:08;24.33;59.95
74087;SHT30;62445;48.406;-4.518;2023-07-29T09:58:33;24.36;59.23
74087;SHT30;62445;48.406;-4.518;2023-07-29T10:01:00;24.35;59.72
74087;SHT30;62445;48.406;-4.518;2023-07-29T10:03:26;24.33;59.78
74087;SHT30;62445;48.406;-4.518;2023-07-29T10:05:53;24.35;59.62
74087;SHT30;62445;48.406;-4.518;2023-07-29T10:08:19;24.33;59.67
74087;SHT30;62445;48.406;-4.518;2023-07-29T10:10:45;24.35;59.53
74087;SHT30;62445;48.406;-4.518;2023-07-29T10:13:12;24.39;59.54
74087;SHT30;62445;48.406;-4.518;2023-07-29T10:15:38;24.43;59.38
74087;SHT30;62445;48.406;-4.518;2023-07-29T10:18:03;24.45;59.39
74087;SHT30;62445;48.406;-4.518;2023-07-29T10:20:32;24.46;59.41
74087;SHT30;62445;48.406;-4.518;2023-07-29T10:23:00;24.46;59.34
74087;SHT30;62445;48.406;-4.518;2023-07-29T10:25:33;24.48;59.39
74087;SHT30;62445;48.406;-4.518;2023-07-29T10:28:07;24.46;59.35
74087;SHT30;62445;48.406;-4.518;2023-07-29T10:30:32;24.49;59.19
74087;SHT30;62445;48.406;-4.518;2023-07-29T10:33:02;24.53;59.24
74087;SHT30;62445;48.406;-4.518;2023-07-29T10:35:28;24.52;59.14
74087;SHT30;62445;48.406;-4.518;2023-07-29T10:37:54;24.56;59.03
74087;SHT30;62445;48.406;-4.518;2023-07-29T10:40:21;24.57;58.95
74087;SHT30;62445;48.406;-4.518;2023-07-29T10:43:09;24.59;59.16
74087;SHT30;62445;48.406;-4.518;2023-07-29T10:45:39;24.56;59.14
74087;SHT30;62445;48.406;-4.518;2023-07-29T10:54:19;24.62;59.09
74087;SHT30;62445;48.406;-4.518;2023-07-29T10:56:48;24.60;59.12
74087;SHT30;62445;48.406;-4.518;2023-07-29T11:01:50;24.59;59.35
74087;SHT30;62445;48.406;-4.518;2023-07-29T11:09:42;24.52;59.50
74087;SHT30;62445;48.406;-4.518;2023-07-29T11:15:24;24.52;59.59
74087;SHT30;62445;48.406;-4.518;2023-07-29T11:20:27;24.53;59.66
74087;SHT30;62445;48.406;-4.518;2023-07-29T11:22:54;24.57;60.09
74087;SHT30;62445;48.406;-4.518;2023-07-29T11:25:21;24.62;59.84
74087;SHT30;62445;48.406;-4.518;2023-07-29T11:27:47;24.62;59.93
74087;SHT30;62445;48.406;-4.518;2023-07-29T11:30:14;24.63;59.93
74087;SHT30;62445;48.406;-4.518;2023-07-29T11:32:42;24.63;60.13
74087;SHT30;62445;48.406;-4.518;2023-07-29T11:35:09;24.60;60.00
74087;SHT30;62445;48.406;-4.518;2023-07-29T11:37:38;24.62;60.11
74087;SHT30;62445;48.406;-4.518;2023-07-29T11:40:04;24.59;60.43
74087;SHT30;62445;48.406;-4.518;2023-07-29T11:42:32;24.57;60.35
74087;SHT30;62445;48.406;-4.518;2023-07-29T11:44:58;24.55;60.45
74087;SHT30;62445;48.406;-4.518;2023-07-29T11:47:24;24.53;60.52
74087;SHT30;62445;48.406;-4.518;2023-07-29T11:49:50;24.55;60.47
74087;SHT30;62445;48.406;-4.518;2023-07-29T11:52:15;24.56;60.56
74087;SHT30;62445;48.406;-4.518;2023-07-29T11:54:46;24.62;60.54
74087;SHT30;62445;48.406;-4.518;2023-07-29T11:57:12;24.62;60.40
74087;SHT30;62445;48.406;-4.518;2023-07-29T11:59:39;24.67;60.33
74087;SHT30;62445;48.406;-4.518;2023-07-29T12:02:10;24.72;60.18
74087;SHT30;62445;48.406;-4.518;2023-07-29T12:04:37;24.77;60.18
74087;SHT30;62445;48.406;-4.518;2023-07-29T12:07:04;24.76;60.13
74087;SHT30;62445;48.406;-4.518;2023-07-29T12:09:30;24.76;60.08
74087;SHT30;62445;48.406;-4.518;2023-07-29T12:11:56;24.76;60.11
74087;SHT30;62445;48.406;-4.518;2023-07-29T12:14:21;24.72;60.24
74087;SHT30;62445;48.406;-4.518;2023-07-29T12:16:50;24.72;60.27
74087;SHT30;62445;48.406;-4.518;2023-07-29T12:19:17;24.67;60.48
74087;SHT30;62445;48.406;-4.518;2023-07-29T12:21:43;24.63;60.48
74087;SHT30;62445;48.406;-4.518;2023-07-29T12:24:09;24.63;60.45
74087;SHT30;62445;48.406;-4.518;2023-07-29T12:26:37;24.65;60.47
74087;SHT30;62445;48.406;-4.518;2023-07-29T12:29:18;24.67;60.46
74087;SHT30;62445;48.406;-4.518;2023-07-29T12:31:46;24.70;60.42
74087;SHT30;62445;48.406;-4.518;2023-07-29T12:34:21;24.72;60.42
74087;SHT30;62445;48.406;-4.518;2023-07-29T12:36:49;24.73;60.42
74087;SHT30;62445;48.406;-4.518;2023-07-29T12:41:46;24.77;60.35
74087;SHT30;62445;48.406;-4.518;2023-07-29T12:44:12;24.83;60.23
74087;SHT30;62445;48.406;-4.518;2023-07-29T12:46:38;24.84;60.16
74087;SHT30;62445;48.406;-4.518;2023-07-29T12:49:03;24.83;60.22
74087;SHT30;62445;48.406;-4.518;2023-07-29T12:51:28;24.77;60.27
74087;SHT30;62445;48.406;-4.518;2023-07-29T12:53:54;24.82;60.30
74087;SHT30;62445;48.406;-4.518;2023-07-29T12:56:19;24.80;60.27
74087;SHT30;62445;48.406;-4.518;2023-07-29T12:58:45;24.82;60.21
74087;SHT30;62445;48.406;-4.518;2023-07-29T13:01:11;24.84;60.22
74087;SHT30;62445;48.406;-4.518;2023-07-29T13:03:41;24.87;60.18
74087;SHT30;62445;48.406;-4.518;2023-07-29T13:06:07;24.95;60.06
74087;SHT30;62445;48.406;-4.518;2023-07-29T13:08:32;25.02;59.96
74087;SHT30;62445;48.406;-4.518;2023-07-29T13:10:58;25.04;59.87
74087;SHT30;62445;48.406;-4.518;2023-07-29T13:13:23;25.10;59.81
74087;SHT30;62445;48.406;-4.518;2023-07-29T13:15:48;25.11;59.77
74087;SHT30;62445;48.406;-4.518;2023-07-29T13:18:14;25.14;59.69
74087;SHT30;62445;48.406;-4.518;2023-07-29T13:20:39;25.18;59.65
74087;SHT30;62445;48.406;-4.518;2023-07-29T13:23:04;25.25;59.46
74087;SHT30;62445;48.406;-4.518;2023-07-29T13:25:30;25.25;59.39
74087;SHT30;62445;48.406;-4.518;2023-07-29T13:27:56;25.32;59.28
74087;SHT30;62445;48.406;-4.518;2023-07-29T13:30:21;25.34;59.23
74087;SHT30;62445;48.406;-4.518;2023-07-29T13:32:46;25.35;59.19
74087;SHT30;62445;48.406;-4.518;2023-07-29T13:35:12;25.37;59.13
74087;SHT30;62445;48.406;-4.518;2023-07-29T13:37:37;25.41;59.15
74087;SHT30;62445;48.406;-4.518;2023-07-29T13:40:03;25.42;59.08
74087;SHT30;62445;48.406;-4.518;2023-07-29T13:42:28;25.42;58.99
74087;SHT30;62445;48.406;-4.518;2023-07-29T13:44:54;25.46;58.91
74087;SHT30;62445;48.406;-4.518;2023-07-29T13:47:19;25.52;58.87
74087;SHT30;62445;48.406;-4.518;2023-07-29T13:49:45;25.59;58.83
74087;SHT30;62445;48.406;-4.518;2023-07-29T13:52:10;25.59;58.68
74087;SHT30;62445;48.406;-4.518;2023-07-29T13:54:36;25.62;58.69
74087;SHT30;62445;48.406;-4.518;2023-07-29T13:57:01;25.63;58.67
74087;SHT30;62445;48.406;-4.518;2023-07-29T13:59:27;25.66;58.57
74087;SHT30;62445;48.406;-4.518;2023-07-29T14:01:52;25.72;58.48
74087;SHT30;62445;48.406;-4.518;2023-07-29T14:04:17;25.75;58.40
74087;SHT30;62445;48.406;-4.518;2023-07-29T14:06:43;25.79;58.27
74087;SHT30;62445;48.406;-4.518;2023-07-29T14:09:08;25.86;58.16
74087;SHT30;62445;48.406;-4.518;2023-07-29T14:11:34;25.88;58.09
74087;SHT30;62445;48.406;-4.518;2023-07-29T14:13:59;25.85;58.11
74087;SHT30;62445;48.406;-4.518;2023-07-29T14:16:24;25.83;58.12
74087;SHT30;62445;48.406;-4.518;2023-07-29T14:18:50;25.89;57.99
74087;SHT30;62445;48.406;-4.518;2023-07-29T14:21:15;25.90;57.94
74087;SHT30;62445;48.406;-4.518;2023-07-29T14:23:41;25.88;58.02
74087;SHT30;62445;48.406;-4.518;2023-07-29T14:26:06;25.82;58.04
74087;SHT30;62445;48.406;-4.518;2023-07-29T14:28:35;25.80;58.11
74087;SHT30;62445;48.406;-4.518;2023-07-29T14:31:01;25.80;58.18
74087;SHT30;62445;48.406;-4.518;2023-07-29T14:33:26;25.75;58.12
74087;SHT30;62445;48.406;-4.518;2023-07-29T14:35:53;25.73;58.14
74087;SHT30;62445;48.406;-4.518;2023-07-29T14:38:18;25.68;58.15
74087;SHT30;62445;48.406;-4.518;2023-07-29T14:40:43;25.66;58.21
74087;SHT30;62445;48.406;-4.518;2023-07-29T14:43:09;25.65;58.26
74087;SHT30;62445;48.406;-4.518;2023-07-29T14:45:34;25.65;58.29
74087;SHT30;62445;48.406;-4.518;2023-07-29T14:47:59;25.65;58.18
74087;SHT30;62445;48.406;-4.518;2023-07-29T14:50:25;25.59;58.14
74087;SHT30;62445;48.406;-4.518;2023-07-29T14:52:50;25.58;58.29
74087;SHT30;62445;48.406;-4.518;2023-07-29T14:55:16;25.53;58.34
74087;SHT30;62445;48.406;-4.518;2023-07-29T14:57:41;25.58;58.31
74087;SHT30;62445;48.406;-4.518;2023-07-29T15:00:07;25.61;58.20
74087;SHT30;62445;48.406;-4.518;2023-07-29T15:02:33;25.63;58.23
74087;SHT30;62445;48.406;-4.518;2023-07-29T15:04:59;25.62;58.18
74087;SHT30;62445;48.406;-4.518;2023-07-29T15:07:24;25.59;58.24
74087;SHT30;62445;48.406;-4.518;2023-07-29T15:09:49;25.61;58.27
74087;SHT30;62445;48.406;-4.518;2023-07-29T15:12:15;25.59;58.23
74087;SHT30;62445;48.406;-4.518;2023-07-29T15:14:41;25.65;58.10
74087;SHT30;62445;48.406;-4.518;2023-07-29T15:17:07;25.63;57.96
74087;SHT30;62445;48.406;-4.518;2023-07-29T15:19:32;25.65;57.96
74087;SHT30;62445;48.406;-4.518;2023-07-29T15:21:57;25.62;57.96
74087;SHT30;62445;48.406;-4.518;2023-07-29T15:24:23;25.66;57.97
74087;SHT30;62445;48.406;-4.518;2023-07-29T15:26:48;25.66;57.94
74087;SHT30;62445;48.406;-4.518;2023-07-29T15:29:14;25.66;57.80
74087;SHT30;62445;48.406;-4.518;2023-07-29T15:31:40;25.68;57.74
74087;SHT30;62445;48.406;-4.518;2023-07-29T15:34:06;25.65;57.68
74087;SHT30;62445;48.406;-4.518;2023-07-29T15:36:32;25.68;57.65